Terminal Aerodrome Forecast
Issued by NWS Jackson, MS

Home | Current Version | Previous Version | Text Only | Print | Product List | Glossary On
Versions: 1 2 3 4 5 6 7 8 9 10 11 12 13 14
000
FTUS44 KJAN 161700
TAFJAN
TAF
KJAN 161720Z 1618/1718 01005KT P6SM SCT100
     FM170900 VRB03KT 6SM BR SCT005
     FM171300 05004KT P6SM FEW030=

USA.gov is the U.S. government's official web portal to all federal, state and local government web resources and services.